Time;durP1;ratioP1;P1;durP2;ratioP2;P2;SDS_P1;SDS_P2;PMS_P1;PMS_P2;Temp;Humidity;BMP_temperature;BMP_pressure;BME280_temperature;BME280_humidity;BME280_pressure;Samples;Min_cycle;Max_cycle;Signal;HPM_P1;HPM_P2
2021/07/14 00:00:00;;;;;;;33.20;23.25;;;19.80;99.90;;;;;;4246947;27;20062;-70
2021/07/14 00:02:05;;;;;;;34.88;24.55;;;19.80;99.90;;;;;;4265352;27;20055;-71
2021/07/14 00:04:08;;;;;;;36.65;24.52;;;19.80;99.90;;;;;;4265193;27;20054;-71
2021/07/14 00:06:11;;;;;;;28.42;20.92;;;19.90;99.90;;;;;;4265024;27;20066;-71
2021/07/14 00:08:14;;;;;;;35.72;24.35;;;19.90;99.90;;;;;;4264713;27;20051;-71
2021/07/14 00:10:22;;;;;;;36.20;22.80;;;19.90;99.90;;;;;;4264868;27;20491;-71
2021/07/14 00:12:28;;;;;;;33.35;22.75;;;19.70;99.90;;;;;;4265013;27;20047;-71
2021/07/14 00:24:04;;;;;;;27.80;21.55;;;19.70;99.90;;;;;;4264513;27;20058;-70
2021/07/14 00:26:08;;;;;;;33.65;23.17;;;19.60;99.90;;;;;;4264750;27;20051;-71
2021/07/14 00:28:11;;;;;;;30.75;23.75;;;19.60;99.90;;;;;;4264486;27;20058;-71
2021/07/14 00:30:22;;;;;;;34.45;24.63;;;19.60;99.90;;;;;;4264445;27;20051;-71
2021/07/14 00:32:27;;;;;;;36.22;22.52;;;19.60;99.90;;;;;;4264546;27;20392;-71
2021/07/14 00:34:33;;;;;;;28.15;20.15;;;19.60;99.90;;;;;;4264480;27;20065;-71
2021/07/14 00:36:36;;;;;;;34.13;23.85;;;19.70;99.90;;;;;;4264548;27;20051;-71
2021/07/14 00:38:40;;;;;;;33.63;22.63;;;19.60;99.90;;;;;;4264594;27;20059;-71
2021/07/14 00:40:43;;;;;;;29.88;21.63;;;19.70;99.90;;;;;;4264350;27;20082;-71
2021/07/14 00:42:46;;;;;;;29.92;21.55;;;19.60;99.90;;;;;;4264607;27;20055;-72
2021/07/14 00:44:49;;;;;;;33.88;22.25;;;19.60;99.90;;;;;;4264282;27;20051;-71
2021/07/14 00:46:53;;;;;;;27.10;20.17;;;19.50;99.90;;;;;;4264483;27;20058;-73
2021/07/14 00:49:00;;;;;;;29.58;21.02;;;19.50;99.90;;;;;;4264373;27;20054;-71
2021/07/14 00:51:04;;;;;;;33.22;21.77;;;19.50;99.90;;;;;;4264091;27;20566;-71
2021/07/14 00:53:07;;;;;;;32.80;20.83;;;19.50;99.90;;;;;;4264416;27;20487;-71
2021/07/14 00:55:11;;;;;;;33.90;23.42;;;19.50;99.90;;;;;;4263971;27;20055;-71
2021/07/14 00:57:19;;;;;;;29.65;20.60;;;19.50;99.90;;;;;;4264141;27;20054;-71
2021/07/14 00:59:22;;;;;;;30.80;21.23;;;19.50;99.90;;;;;;4246022;27;20507;-71
2021/07/14 01:01:27;;;;;;;30.58;20.08;;;19.50;99.90;;;;;;4264154;27;20042;-72
2021/07/14 01:03:35;;;;;;;33.17;20.38;;;19.50;99.90;;;;;;4263957;27;20491;-71
2021/07/14 01:05:44;;;;;;;27.73;19.13;;;19.60;99.90;;;;;;4264336;27;20068;-73
2021/07/14 01:07:54;;;;;;;30.40;19.60;;;19.60;99.90;;;;;;4263445;27;20054;-71
2021/07/14 01:10:02;;;;;;;30.58;19.58;;;19.60;99.90;;;;;;4264594;27;20536;-71
2021/07/14 01:12:11;;;;;;;27.13;18.35;;;19.70;99.90;;;;;;4264340;27;20050;-71
2021/07/14 01:14:22;;;;;;;36.58;20.20;;;19.70;99.90;;;;;;4264270;27;20059;-71
2021/07/14 01:16:31;;;;;;;27.08;17.35;;;19.50;99.90;;;;;;4263962;27;20050;-71
2021/07/14 01:18:49;;;;;;;24.88;16.77;;;19.50;99.90;;;;;;4264152;27;20047;-71
2021/07/14 01:20:59;;;;;;;25.42;16.52;;;19.50;99.90;;;;;;4265517;27;20055;-71
2021/07/14 01:23:09;;;;;;;26.65;17.27;;;19.40;99.90;;;;;;4263703;27;20057;-73
2021/07/14 01:25:25;;;;;;;23.67;16.67;;;19.40;99.90;;;;;;4264180;27;20050;-72
2021/07/14 01:27:34;;;;;;;;;;;19.50;99.90;;;;;;4264071;27;20130;-72
2021/07/14 01:29:43;;;;;;;20.75;14.48;;;19.60;99.90;;;;;;4245809;27;19942;-72
2021/07/14 01:31:48;;;;;;;20.33;14.98;;;19.50;99.90;;;;;;4264986;27;20047;-73
2021/07/14 01:33:57;;;;;;;20.15;14.98;;;19.60;99.90;;;;;;4264528;27;20051;-71
2021/07/14 01:36:04;;;;;;;21.98;14.52;;;19.40;99.90;;;;;;4245595;27;20515;-71
2021/07/14 01:38:10;;;;;;;23.92;15.88;;;19.50;99.90;;;;;;4263208;27;20055;-72
2021/07/14 01:40:14;;;;;;;25.80;15.32;;;19.50;99.90;;;;;;4263703;27;20055;-71
2021/07/14 01:42:19;;;;;;;22.75;14.82;;;19.50;99.90;;;;;;4263292;27;20051;-71
2021/07/14 01:44:27;;;;;;;24.33;13.73;;;19.50;99.90;;;;;;4263521;27;20062;-71
2021/07/14 01:46:32;;;;;;;17.60;12.45;;;19.50;99.90;;;;;;4263238;27;20532;-71
2021/07/14 01:48:39;;;;;;;18.45;12.30;;;19.50;99.90;;;;;;4263512;27;20058;-71
2021/07/14 01:50:44;;;;;;;20.33;11.88;;;19.40;99.90;;;;;;4263297;27;20521;-71
2021/07/14 01:52:48;;;;;;;17.33;11.40;;;19.40;99.90;;;;;;4244940;27;20051;-71
2021/07/14 01:54:53;;;;;;;15.30;11.18;;;19.40;99.90;;;;;;4263167;27;20055;-71
2021/07/14 01:56:58;;;;;;;22.02;11.05;;;19.50;99.90;;;;;;4262965;27;20051;-70
2021/07/14 01:59:01;;;;;;;10.68;8.50;;;19.40;99.90;;;;;;4263150;27;20054;-70
2021/07/14 02:01:07;;;;;;;17.98;10.07;;;19.30;99.90;;;;;;4263196;27;20064;-70
2021/07/14 02:05:32;;;;;;;14.25;8.00;;;19.30;99.90;;;;;;4263211;27;20050;-74
2021/07/14 02:07:36;;;;;;;14.60;8.73;;;19.10;99.90;;;;;;4263708;27;20054;-71
2021/07/14 02:09:40;;;;;;;15.40;8.80;;;19.10;99.90;;;;;;4263376;27;20062;-72
2021/07/14 02:11:46;;;;;;;11.45;7.93;;;19.20;99.90;;;;;;4263662;27;20077;-72
2021/07/14 02:13:52;;;;;;;12.45;8.50;;;19.20;99.90;;;;;;4263272;27;20054;-71
2021/07/14 02:15:58;;;;;;;10.68;7.47;;;19.30;99.90;;;;;;4263560;27;20517;-71
2021/07/14 02:18:09;;;;;;;14.57;8.43;;;19.30;99.90;;;;;;4263123;27;20127;-70
2021/07/14 02:20:15;;;;;;;15.07;6.88;;;19.40;99.90;;;;;;4262992;27;20059;-71
2021/07/14 02:22:18;;;;;;;13.20;7.50;;;19.40;99.90;;;;;;4263315;27;20046;-72
2021/07/14 02:24:21;;;;;;;13.00;7.32;;;19.40;99.90;;;;;;4263742;27;20050;-72
2021/07/14 02:26:25;;;;;;;13.10;7.45;;;19.40;99.90;;;;;;4263479;27;20055;-74
2021/07/14 02:28:29;;;;;;;10.45;6.93;;;19.30;99.90;;;;;;4263415;27;20061;-73
2021/07/14 02:30:32;;;;;;;14.13;7.18;;;19.30;99.90;;;;;;4263789;27;20050;-73
2021/07/14 02:32:37;;;;;;;13.23;8.25;;;19.30;99.90;;;;;;4264063;27;20061;-72
2021/07/14 02:34:41;;;;;;;;;;;19.20;99.90;;;;;;4264404;27;20062;-75
2021/07/14 02:36:47;;;;;;;12.38;6.82;;;19.30;99.90;;;;;;4263260;27;19934;-72
2021/07/14 02:38:57;;;;;;;19.88;7.47;;;19.30;99.90;;;;;;4263386;27;20061;-71
2021/07/14 02:41:07;;;;;;;11.80;6.93;;;19.30;99.90;;;;;;4262780;27;20054;-72
2021/07/14 02:43:11;;;;;;;16.48;7.15;;;19.30;99.90;;;;;;4263094;27;20062;-71
2021/07/14 02:45:14;;;;;;;12.43;6.55;;;19.40;99.90;;;;;;4262868;27;20096;-71
2021/07/14 02:47:17;;;;;;;13.85;6.13;;;19.50;99.90;;;;;;4263149;27;20055;-72
2021/07/14 02:49:25;;;;;;;11.68;6.03;;;19.30;99.90;;;;;;4263039;27;20051;-71
2021/07/14 02:51:33;;;;;;;11.10;6.72;;;19.30;99.90;;;;;;4263694;27;20057;-71
2021/07/14 02:53:41;;;;;;;14.95;6.45;;;19.30;99.90;;;;;;4263234;27;20061;-72
2021/07/14 02:55:52;;;;;;;13.73;6.03;;;19.30;99.90;;;;;;4262670;27;20084;-71
2021/07/14 02:57:58;;;;;;;9.80;6.20;;;19.30;99.90;;;;;;4263085;27;20050;-71
2021/07/14 03:00:01;;;;;;;7.70;6.05;;;19.30;99.90;;;;;;4262819;27;20051;-71
2021/07/14 03:02:05;;;;;;;9.93;5.97;;;19.40;99.90;;;;;;4262825;27;20051;-71
2021/07/14 03:04:10;;;;;;;11.70;5.47;;;19.30;99.90;;;;;;4262638;27;20643;-71
2021/07/14 03:06:14;;;;;;;9.82;5.50;;;19.40;99.90;;;;;;4262574;27;20051;-71
2021/07/14 03:08:19;;;;;;;10.02;6.28;;;19.40;99.90;;;;;;4262849;27;20058;-71
2021/07/14 03:10:22;;;;;;;;;;;19.30;99.90;;;;;;4263105;27;20061;-71
2021/07/14 03:12:26;;;;;;;9.05;4.90;;;19.40;99.90;;;;;;4262925;27;19923;-71
2021/07/14 03:14:30;;;;;;;8.25;5.45;;;19.40;99.90;;;;;;4262694;27;20058;-71
2021/07/14 03:16:35;;;;;;;14.95;5.72;;;19.30;99.90;;;;;;4263052;27;20063;-73
2021/07/14 03:18:40;;;;;;;13.15;4.85;;;19.10;99.90;;;;;;4262555;27;20051;-72
2021/07/14 03:20:44;;;;;;;;;;;19.30;99.90;;;;;;4263377;27;20059;-72
2021/07/14 03:22:50;;;;;;;9.48;4.95;;;19.40;99.90;;;;;;4262400;27;20014;-72
2021/07/14 03:24:56;;;;;;;10.60;5.18;;;19.30;99.90;;;;;;4263125;27;20051;-72
2021/07/14 03:27:01;;;;;;;12.35;4.65;;;19.30;99.90;;;;;;4264227;27;20054;-71
2021/07/14 03:29:04;;;;;;;10.32;5.05;;;19.30;99.90;;;;;;4265101;27;20880;-71
2021/07/14 03:31:09;;;;;;;6.82;4.78;;;19.20;99.90;;;;;;4266185;27;20411;-72
2021/07/14 03:33:12;;;;;;;12.00;5.13;;;19.30;99.90;;;;;;4268076;27;20057;-73
2021/07/14 03:35:16;;;;;;;9.07;4.30;;;19.20;99.90;;;;;;4268770;27;20510;-74
2021/07/14 03:37:19;;;;;;;12.15;5.22;;;19.30;99.90;;;;;;4270136;27;20054;-74
2021/07/14 03:39:23;;;;;;;8.23;4.82;;;19.20;99.90;;;;;;4268133;27;20047;-76
2021/07/14 03:41:28;;;;;;;15.35;4.45;;;19.30;99.90;;;;;;4267588;27;20061;-73
2021/07/14 03:43:33;;;;;;;10.15;4.93;;;19.20;99.90;;;;;;4265817;27;20061;-72
2021/07/14 03:45:38;;;;;;;10.75;4.50;;;19.20;99.90;;;;;;4265501;27;20524;-73
2021/07/14 03:47:42;;;;;;;11.80;4.15;;;19.20;99.90;;;;;;4265105;27;20117;-72
2021/07/14 03:49:46;;;;;;;9.02;4.70;;;19.20;99.90;;;;;;4265315;27;20063;-71
2021/07/14 03:51:50;;;;;;;9.18;5.22;;;19.10;99.90;;;;;;4265264;27;20050;-71
2021/07/14 03:53:53;;;;;;;8.52;4.88;;;19.00;99.90;;;;;;4265118;27;20053;-72
2021/07/14 03:55:57;;;;;;;11.10;5.05;;;19.10;99.90;;;;;;4265261;27;20527;-72
2021/07/14 03:58:01;;;;;;;11.57;4.72;;;19.20;99.90;;;;;;4265184;27;20046;-72
2021/07/14 04:00:06;;;;;;;7.72;5.38;;;19.10;99.90;;;;;;4264956;27;20047;-72
2021/07/14 04:02:11;;;;;;;9.32;4.18;;;19.20;99.90;;;;;;4265389;27;20061;-73
2021/07/14 04:04:14;;;;;;;9.20;4.70;;;19.30;99.90;;;;;;4265426;27;20437;-72
2021/07/14 04:06:19;;;;;;;8.93;4.45;;;19.20;99.90;;;;;;4265496;27;20054;-73
2021/07/14 04:08:25;;;;;;;9.38;4.55;;;19.20;99.90;;;;;;4266037;27;20639;-73
2021/07/14 04:10:28;;;;;;;9.85;5.00;;;19.20;99.90;;;;;;4265819;27;20055;-76
2021/07/14 04:12:31;;;;;;;10.40;4.50;;;19.20;99.90;;;;;;4266486;27;20064;-72
2021/07/14 04:14:36;;;;;;;7.55;4.90;;;19.30;99.90;;;;;;4265788;27;20055;-73
2021/07/14 04:16:39;;;;;;;17.05;4.45;;;19.20;99.90;;;;;;4265695;27;20061;-73
2021/07/14 04:18:42;;;;;;;8.45;3.97;;;19.30;99.90;;;;;;4265581;27;20099;-73
2021/07/14 04:20:45;;;;;;;8.70;3.92;;;19.40;99.90;;;;;;4264781;27;20059;-72
2021/07/14 04:22:48;;;;;;;5.80;4.13;;;19.40;99.90;;;;;;4264544;27;20057;-74
2021/07/14 04:24:51;;;;;;;12.98;4.47;;;19.30;99.90;;;;;;4264770;27;20062;-71
2021/07/14 04:26:54;;;;;;;18.20;4.60;;;19.30;99.90;;;;;;4264695;27;20064;-71
2021/07/14 04:28:57;;;;;;;10.93;4.80;;;19.40;99.90;;;;;;4264606;27;20523;-72
2021/07/14 04:31:02;;;;;;;8.55;4.22;;;19.40;99.90;;;;;;4264450;27;20104;-71
2021/07/14 04:33:05;;;;;;;12.00;4.90;;;19.40;99.90;;;;;;4264503;27;20518;-71
2021/07/14 04:35:09;;;;;;;12.43;4.90;;;19.30;99.90;;;;;;4264441;27;20422;-71
2021/07/14 04:37:12;;;;;;;9.65;4.65;;;19.30;99.90;;;;;;4246214;27;20059;-71
2021/07/14 04:39:15;;;;;;;9.38;5.43;;;19.30;99.90;;;;;;4264352;27;20072;-71
2021/07/14 04:41:18;;;;;;;12.30;4.85;;;19.30;99.90;;;;;;4264222;27;20050;-71
2021/07/14 04:43:21;;;;;;;11.07;5.05;;;19.30;99.90;;;;;;4264428;27;20087;-72
2021/07/14 04:45:24;;;;;;;9.25;5.00;;;19.40;99.90;;;;;;4246094;27;20051;-72
2021/07/14 04:47:29;;;;;;;14.57;5.70;;;19.50;99.90;;;;;;4264553;27;20058;-71
2021/07/14 04:49:32;;;;;;;13.90;5.32;;;19.50;99.90;;;;;;4264527;27;20483;-71
2021/07/14 04:51:35;;;;;;;9.85;5.20;;;19.50;99.90;;;;;;4264143;27;20063;-71
2021/07/14 04:53:38;;;;;;;9.63;5.20;;;19.60;99.90;;;;;;4246114;27;20051;-71
2021/07/14 04:55:41;;;;;;;11.73;5.13;;;19.60;99.90;;;;;;4264100;27;20058;-71
2021/07/14 04:57:44;;;;;;;9.48;5.35;;;19.60;99.90;;;;;;4264200;27;20118;-72
2021/07/14 04:59:47;;;;;;;15.23;5.68;;;19.50;99.90;;;;;;4263969;27;20053;-73
2021/07/14 05:01:50;;;;;;;17.58;5.57;;;19.40;99.90;;;;;;4264255;27;20061;-72
2021/07/14 05:03:54;;;;;;;11.90;6.15;;;19.40;99.90;;;;;;4264301;27;20051;-71
2021/07/14 05:05:58;;;;;;;11.45;5.65;;;19.40;99.90;;;;;;4264299;27;20054;-71
2021/07/14 05:08:01;;;;;;;12.07;5.75;;;19.50;99.90;;;;;;4246210;27;20059;-72
2021/07/14 05:10:04;;;;;;;11.55;5.70;;;19.50;99.90;;;;;;4264434;27;20522;-72
2021/07/14 05:12:08;;;;;;;9.90;5.90;;;19.50;99.90;;;;;;4264266;27;20054;-71
2021/07/14 05:14:10;;;;;;;11.70;6.00;;;19.50;99.90;;;;;;4264123;27;20502;-70
2021/07/14 05:16:13;;;;;;;12.10;6.40;;;19.60;99.90;;;;;;4264116;27;20099;-71
2021/07/14 05:18:17;;;;;;;14.15;6.90;;;19.60;99.90;;;;;;4263942;27;20058;-71
2021/07/14 05:20:21;;;;;;;14.50;6.57;;;19.70;99.90;;;;;;4263781;27;20073;-71
2021/07/14 05:22:24;;;;;;;15.15;6.72;;;19.60;99.90;;;;;;4263683;27;20055;-71
2021/07/14 05:24:27;;;;;;;13.88;6.70;;;19.60;99.90;;;;;;4263424;27;20642;-71
2021/07/14 05:26:30;;;;;;;14.35;7.13;;;19.70;99.90;;;;;;4263669;27;20058;-70
2021/07/14 05:28:33;;;;;;;15.77;7.05;;;19.70;99.90;;;;;;4263668;27;20059;-73
2021/07/14 05:30:39;;;;;;;12.95;7.20;;;19.70;99.90;;;;;;4263765;27;20053;-71
2021/07/14 05:32:42;;;;;;;21.67;8.55;;;19.70;99.90;;;;;;4263188;27;20051;-71
2021/07/14 05:34:45;;;;;;;17.33;7.88;;;19.70;99.90;;;;;;4263402;27;20590;-71
2021/07/14 05:36:49;;;;;;;19.85;8.30;;;19.70;99.90;;;;;;4263583;27;20065;-71
2021/07/14 05:38:55;;;;;;;18.08;9.15;;;19.80;99.90;;;;;;4263359;27;20663;-71
2021/07/14 05:40:58;;;;;;;13.68;7.55;;;19.70;99.90;;;;;;4263510;27;20058;-71
2021/07/14 05:43:01;;;;;;;15.63;8.40;;;19.70;99.90;;;;;;4263498;27;20058;-71
2021/07/14 05:45:05;;;;;;;17.38;7.88;;;19.70;99.90;;;;;;4263631;27;20640;-73
2021/07/14 05:47:09;;;;;;;14.52;7.63;;;19.70;99.90;;;;;;4263936;27;20080;-71
2021/07/14 05:49:12;;;;;;;11.85;7.18;;;19.70;99.90;;;;;;4266003;27;20478;-76
2021/07/14 05:51:15;;;;;;;15.82;6.47;;;19.60;99.90;;;;;;4264425;27;20126;-71
2021/07/14 05:53:20;;;;;;;13.90;7.03;;;19.60;99.90;;;;;;4262987;27;20065;-72
2021/07/14 05:55:23;;;;;;;11.50;6.80;;;19.50;99.90;;;;;;4263143;27;20441;-71
2021/07/14 05:57:26;;;;;;;13.52;6.07;;;19.60;99.90;;;;;;4263577;27;20055;-71
2021/07/14 05:59:29;;;;;;;9.25;5.40;;;19.40;99.90;;;;;;4263984;27;20059;-71
2021/07/14 06:01:32;;;;;;;8.93;5.78;;;19.40;99.90;;;;;;4264794;27;20610;-72
2021/07/14 06:03:35;;;;;;;11.02;6.07;;;19.30;99.90;;;;;;4264557;27;20055;-71
2021/07/14 06:05:39;;;;;;;12.20;5.57;;;19.40;99.90;;;;;;4264162;27;20061;-72
2021/07/14 06:07:42;;;;;;;11.52;5.57;;;19.40;99.90;;;;;;4263499;27;20059;-71
2021/07/14 06:09:47;;;;;;;11.73;5.10;;;19.30;99.90;;;;;;4263553;27;20058;-72
2021/07/14 06:11:50;;;;;;;9.48;4.45;;;19.30;99.90;;;;;;4263441;27;20065;-71
2021/07/14 06:13:53;;;;;;;7.35;4.65;;;19.10;99.90;;;;;;4262881;27;20051;-72
2021/07/14 06:15:56;;;;;;;13.38;4.82;;;19.20;99.90;;;;;;4263471;27;20055;-71
2021/07/14 06:17:59;;;;;;;10.50;4.80;;;19.20;99.90;;;;;;4263107;27;20053;-70
2021/07/14 06:20:04;;;;;;;7.80;3.95;;;19.20;99.90;;;;;;4262930;27;20119;-71
2021/07/14 06:22:07;;;;;;;7.78;4.18;;;19.10;99.90;;;;;;4244795;27;20055;-70
2021/07/14 06:24:10;;;;;;;10.63;4.50;;;19.20;99.90;;;;;;4262914;27;20062;-74
2021/07/14 06:26:15;;;;;;;9.32;4.32;;;19.10;99.90;;;;;;4262895;27;20077;-72
2021/07/14 06:28:18;;;;;;;7.30;4.07;;;19.20;99.90;;;;;;4263071;27;20059;-71
2021/07/14 06:30:21;;;;;;;9.23;4.45;;;19.30;99.90;;;;;;4262862;27;20058;-73
2021/07/14 06:32:24;;;;;;;8.13;4.72;;;19.30;99.90;;;;;;4262521;27;20062;-71
2021/07/14 06:34:27;;;;;;;12.20;4.68;;;19.40;99.90;;;;;;4262813;27;20057;-71
2021/07/14 06:36:30;;;;;;;11.68;4.47;;;19.40;99.90;;;;;;4262845;27;20055;-71
2021/07/14 06:38:34;;;;;;;9.95;4.80;;;19.30;99.90;;;;;;4262793;27;20047;-71
2021/07/14 06:40:38;;;;;;;7.55;4.40;;;19.10;99.90;;;;;;4262834;27;20055;-72
2021/07/14 06:42:42;;;;;;;9.68;4.82;;;19.10;99.90;;;;;;4262729;27;20047;-71
2021/07/14 06:44:45;;;;;;;8.30;4.97;;;19.30;99.90;;;;;;4262611;27;20050;-72
2021/07/14 06:46:48;;;;;;;8.52;4.57;;;19.40;99.90;;;;;;4262660;27;20066;-71
2021/07/14 06:48:52;;;;;;;6.88;3.55;;;19.40;99.90;;;;;;4262594;27;20456;-71
2021/07/14 06:50:57;;;;;;;8.95;3.88;;;19.50;99.90;;;;;;4262824;27;20055;-70
2021/07/14 06:53:02;;;;;;;6.00;3.78;;;19.50;99.90;;;;;;4262885;27;20061;-71
2021/07/14 06:55:07;;;;;;;6.78;4.03;;;19.30;99.90;;;;;;4262825;27;20057;-71
2021/07/14 06:57:09;;;;;;;9.32;4.22;;;19.40;99.90;;;;;;4263055;27;20061;-71
2021/07/14 06:59:14;;;;;;;6.85;3.97;;;19.50;99.90;;;;;;4262780;27;20439;-73
2021/07/14 07:01:17;;;;;;;12.50;4.47;;;19.60;99.90;;;;;;4262854;27;20115;-75
2021/07/14 07:03:20;;;;;;;12.75;3.90;;;19.60;99.90;;;;;;4262937;27;20055;-72
2021/07/14 07:05:23;;;;;;;6.30;3.83;;;19.50;99.90;;;;;;4263888;27;20059;-72
2021/07/14 07:07:26;;;;;;;8.80;4.40;;;19.50;99.90;;;;;;4267194;27;20051;-72
2021/07/14 07:09:29;;;;;;;8.07;4.57;;;19.60;99.90;;;;;;4266955;27;20111;-73
2021/07/14 07:11:34;;;;;;;11.05;4.50;;;19.80;99.90;;;;;;4266796;27;20057;-71
2021/07/14 07:13:37;;;;;;;11.57;4.60;;;19.80;99.90;;;;;;4266162;27;20119;-71
2021/07/14 07:15:42;;;;;;;9.23;4.68;;;19.80;99.90;;;;;;4266043;27;20046;-72
2021/07/14 07:17:45;;;;;;;8.20;4.18;;;19.80;99.90;;;;;;4265681;27;20055;-71
2021/07/14 07:19:48;;;;;;;10.68;4.95;;;19.90;99.90;;;;;;4265629;27;20058;-72
2021/07/14 07:21:51;;;;;;;6.13;4.57;;;20.00;99.90;;;;;;4265837;27;20050;-72
2021/07/14 07:23:54;;;;;;;11.85;5.35;;;20.00;99.90;;;;;;4265248;27;20050;-74
2021/07/14 07:25:58;;;;;;;8.82;4.90;;;20.00;99.90;;;;;;4265890;27;20059;-70
2021/07/14 07:28:02;;;;;;;10.77;4.85;;;20.10;99.90;;;;;;4265416;27;20054;-70
2021/07/14 07:30:08;;;;;;;14.02;5.55;;;20.10;99.90;;;;;;4265352;27;20107;-73
2021/07/14 07:32:13;;;;;;;13.70;4.90;;;20.20;99.90;;;;;;4265477;27;20059;-73
2021/07/14 07:34:17;;;;;;;12.40;5.88;;;20.20;99.90;;;;;;4265657;27;20062;-72
2021/07/14 07:36:20;;;;;;;7.43;4.90;;;20.20;99.90;;;;;;4265169;27;20058;-72
2021/07/14 07:38:23;;;;;;;7.88;4.93;;;20.20;99.90;;;;;;4265482;27;20057;-73
2021/07/14 07:40:28;;;;;;;9.73;4.90;;;20.40;99.90;;;;;;4265364;27;20107;-73
2021/07/14 07:42:31;;;;;;;;;;;20.40;99.90;;;;;;4266115;27;20058;-72
2021/07/14 07:44:33;;;;;;;11.02;4.80;;;20.50;99.90;;;;;;4265441;27;20476;-72
2021/07/14 07:46:39;;;;;;;6.57;4.75;;;20.60;99.90;;;;;;4265338;27;20054;-71
2021/07/14 07:48:44;;;;;;;6.90;4.75;;;20.50;99.90;;;;;;4265312;27;20681;-70
2021/07/14 07:50:48;;;;;;;13.65;4.20;;;20.60;99.90;;;;;;4265343;27;20047;-70
2021/07/14 07:52:51;;;;;;;12.88;4.63;;;20.50;99.90;;;;;;4264941;27;20054;-70
2021/07/14 07:54:55;;;;;;;8.05;4.38;;;20.40;99.90;;;;;;4265110;27;20061;-72
2021/07/14 07:56:58;;;;;;;10.63;3.88;;;20.60;99.90;;;;;;4265179;27;20055;-70
2021/07/14 07:59:03;;;;;;;5.95;3.80;;;20.40;99.90;;;;;;4266050;27;20499;-71
2021/07/14 08:01:11;;;;;;;7.75;3.97;;;20.60;99.90;;;;;;4266069;27;20055;-72
2021/07/14 08:03:14;;;;;;;6.73;4.23;;;20.60;99.90;;;;;;4265019;27;20050;-72
2021/07/14 08:05:18;;;;;;;7.45;4.13;;;20.60;99.90;;;;;;4265113;27;20051;-71
2021/07/14 08:07:21;;;;;;;9.10;3.70;;;20.40;99.90;;;;;;4264903;27;20055;-70
2021/07/14 08:09:25;;;;;;;5.10;2.95;;;20.60;99.90;;;;;;4264998;27;20525;-71
2021/07/14 08:11:28;;;;;;;7.50;3.22;;;20.50;99.90;;;;;;4265205;27;20069;-71
2021/07/14 08:13:31;;;;;;;7.55;3.47;;;20.30;99.90;;;;;;4265321;27;20055;-72
2021/07/14 08:15:35;;;;;;;6.90;3.45;;;20.50;99.90;;;;;;4265622;27;20050;-71
2021/07/14 08:17:39;;;;;;;6.43;3.23;;;20.40;99.90;;;;;;4264883;27;20406;-72
2021/07/14 08:19:42;;;;;;;6.93;3.38;;;20.20;99.90;;;;;;4265504;27;20474;-71
2021/07/14 08:21:47;;;;;;;5.85;3.60;;;19.90;99.90;;;;;;4265094;27;20055;-72
2021/07/14 08:23:50;;;;;;;6.82;2.95;;;20.00;99.90;;;;;;4246056;27;20049;-72
2021/07/14 08:25:53;;;;;;;7.45;2.78;;;20.00;99.90;;;;;;4263672;27;20043;-71
2021/07/14 08:27:56;;;;;;;5.97;2.72;;;20.20;99.90;;;;;;4245417;27;20099;-71
2021/07/14 08:30:00;;;;;;;5.25;3.13;;;20.30;99.90;;;;;;4264223;27;20062;-71
2021/07/14 08:32:03;;;;;;;5.40;3.05;;;20.30;99.90;;;;;;4264722;27;20146;-72
2021/07/14 08:34:06;;;;;;;7.53;3.30;;;20.40;99.90;;;;;;4264530;27;20066;-72
2021/07/14 08:36:09;;;;;;;6.38;3.50;;;20.40;99.90;;;;;;4264370;27;20057;-72
2021/07/14 08:38:13;;;;;;;4.55;3.10;;;20.30;99.90;;;;;;4264288;27;20077;-71
2021/07/14 08:40:18;;;;;;;8.85;3.65;;;20.30;99.90;;;;;;4264658;27;20066;-73
2021/07/14 08:42:22;;;;;;;4.75;3.25;;;20.40;99.90;;;;;;4264617;27;20085;-71
2021/07/14 08:44:26;;;;;;;4.15;2.88;;;20.30;99.90;;;;;;4264355;27;20069;-72
2021/07/14 08:46:30;;;;;;;4.50;3.38;;;20.30;99.90;;;;;;4264473;27;20057;-72
2021/07/14 08:48:33;;;;;;;8.93;3.80;;;20.40;99.90;;;;;;4246260;27;20055;-72
2021/07/14 08:50:43;;;;;;;4.18;3.33;;;20.40;99.90;;;;;;4264269;27;20051;-71
2021/07/14 08:52:48;;;;;;;6.38;3.63;;;20.50;99.90;;;;;;4264166;27;20058;-71
2021/07/14 08:54:53;;;;;;;6.80;3.63;;;20.30;99.90;;;;;;4259981;27;20119;-71
2021/07/14 08:56:56;;;;;;;5.57;3.40;;;20.30;99.90;;;;;;4259659;27;20484;-72
2021/07/14 08:59:00;;;;;;;6.35;3.95;;;20.30;99.90;;;;;;4256088;27;20047;-71
2021/07/14 09:01:04;;;;;;;7.13;3.25;;;20.40;99.90;;;;;;4255470;27;20108;-74
2021/07/14 09:03:08;;;;;;;5.60;3.33;;;20.50;99.90;;;;;;4257910;27;20218;-74
2021/07/14 09:05:13;;;;;;;5.72;3.50;;;20.50;99.90;;;;;;4256523;27;20495;-74
2021/07/14 09:07:16;;;;;;;4.47;2.47;;;20.60;99.90;;;;;;4255740;27;20049;-71
2021/07/14 09:09:20;;;;;;;4.35;2.80;;;20.60;99.90;;;;;;4255586;27;20043;-72
2021/07/14 09:11:25;;;;;;;4.35;2.70;;;20.30;99.90;;;;;;4255204;27;20054;-73
2021/07/14 09:13:35;;;;;;;8.13;3.08;;;20.40;99.90;;;;;;4254890;27;20059;-72
2021/07/14 09:15:40;;;;;;;7.15;2.88;;;20.30;99.90;;;;;;4255097;27;20055;-72
2021/07/14 09:17:45;;;;;;;6.03;2.60;;;20.00;99.90;;;;;;4257328;27;20419;-72
2021/07/14 09:19:50;;;;;;;6.38;3.58;;;20.10;99.90;;;;;;4255308;27;20055;-73
2021/07/14 09:21:56;;;;;;;4.63;2.78;;;20.20;99.90;;;;;;4255668;27;20038;-72
2021/07/14 09:24:31;;;;;;;2.58;2.30;;;20.30;99.90;;;;;;4254960;27;20057;-73
2021/07/14 09:26:35;;;;;;;4.53;2.50;;;20.20;99.90;;;;;;4255728;27;20054;-73
2021/07/14 09:28:39;;;;;;;3.13;2.60;;;20.10;99.90;;;;;;4255476;27;20042;-74
2021/07/14 09:30:43;;;;;;;4.65;2.67;;;20.20;99.90;;;;;;4255698;27;20051;-72
2021/07/14 09:32:53;;;;;;;5.45;2.78;;;20.20;99.90;;;;;;4255444;27;20133;-72
2021/07/14 09:34:56;;;;;;;5.35;2.60;;;20.40;99.90;;;;;;4256062;27;20050;-72
2021/07/14 09:37:03;;;;;;;5.88;2.63;;;20.60;99.90;;;;;;4253512;27;20055;-71
2021/07/14 09:39:07;;;;;;;6.25;2.78;;;20.70;99.90;;;;;;4255255;27;20050;-73
2021/07/14 09:41:11;;;;;;;9.75;3.00;;;20.50;99.90;;;;;;4256091;27;20069;-71
2021/07/14 09:43:18;;;;;;;5.32;2.80;;;20.60;99.90;;;;;;4237410;27;20076;-72
2021/07/14 09:45:38;;;;;;;5.30;2.55;;;20.50;99.90;;;;;;4255238;27;20143;-71
2021/07/14 09:47:41;;;;;;;6.32;2.35;;;20.50;99.90;;;;;;4254035;27;20051;-71
2021/07/14 09:49:45;;;;;;;3.97;2.67;;;20.70;99.90;;;;;;4254801;27;20410;-71
2021/07/14 09:51:48;;;;;;;3.88;2.60;;;20.70;99.90;;;;;;4248771;27;20080;-72
2021/07/14 09:53:53;;;;;;;4.47;2.15;;;20.50;99.90;;;;;;4246363;27;20063;-71
2021/07/14 09:55:57;;;;;;;6.57;2.33;;;20.50;99.90;;;;;;4248072;27;20055;-73
2021/07/14 09:58:08;;;;;;;6.85;2.33;;;20.30;99.90;;;;;;4256129;27;20043;-73
2021/07/14 10:00:21;;;;;;;3.30;2.40;;;20.40;99.90;;;;;;4257867;27;20096;-75
2021/07/14 10:02:24;;;;;;;3.53;2.30;;;20.20;99.90;;;;;;4258566;27;20049;-76
2021/07/14 10:04:33;;;;;;;4.72;2.35;;;20.10;99.90;;;;;;4256166;27;20058;-74
2021/07/14 10:06:37;;;;;;;5.90;2.63;;;20.20;99.90;;;;;;4257428;27;20047;-73
2021/07/14 10:08:44;;;;;;;6.45;2.45;;;20.30;99.90;;;;;;4257193;27;20051;-74
2021/07/14 10:10:50;;;;;;;6.22;2.83;;;20.40;99.90;;;;;;4256971;27;20046;-73
2021/07/14 10:12:54;;;;;;;8.63;2.78;;;20.50;99.90;;;;;;4255790;27;20065;-73
2021/07/14 10:15:14;;;;;;;3.45;2.75;;;20.60;99.90;;;;;;4254905;27;20407;-74
2021/07/14 10:17:42;;;;;;;4.20;2.42;;;20.60;99.90;;;;;;4251954;27;20053;-73
2021/07/14 10:19:45;;;;;;;4.95;2.28;;;20.60;99.90;;;;;;4254950;27;20043;-73
2021/07/14 10:21:51;;;;;;;6.78;2.50;;;20.60;99.90;;;;;;4254855;27;20053;-73
2021/07/14 10:23:55;;;;;;;3.85;2.60;;;20.90;99.90;;;;;;4254010;27;20050;-71
2021/07/14 10:26:00;;;;;;;7.47;2.60;;;20.90;99.90;;;;;;4255483;27;20047;-72
2021/07/14 10:28:06;;;;;;;6.15;2.92;;;20.80;99.90;;;;;;4263065;27;20061;-71
2021/07/14 10:30:11;;;;;;;5.50;2.90;;;20.90;99.90;;;;;;4263454;27;20138;-73
2021/07/14 10:32:14;;;;;;;;;;;20.80;99.90;;;;;;4261193;27;20098;-72
2021/07/14 10:34:21;;;;;;;4.43;2.58;;;20.90;99.90;;;;;;4257712;27;19919;-72
2021/07/14 10:36:27;;;;;;;6.22;2.92;;;20.90;99.90;;;;;;4263456;27;20068;-71
2021/07/14 10:38:32;;;;;;;4.45;2.83;;;21.00;99.90;;;;;;4259578;27;20058;-73
2021/07/14 10:40:36;;;;;;;;;;;21.00;99.90;;;;;;4260026;27;20401;-74
2021/07/14 10:42:39;;;;;;;5.35;2.63;;;21.20;99.90;;;;;;4251882;27;19919;-73
2021/07/14 10:44:43;;;;;;;6.20;2.85;;;21.10;99.90;;;;;;4249912;27;20051;-72
2021/07/14 10:46:46;;;;;;;4.68;2.75;;;21.20;99.90;;;;;;4252092;27;20052;-73
2021/07/14 10:48:51;;;;;;;5.50;2.90;;;21.40;99.90;;;;;;4268409;27;20051;-72
2021/07/14 10:50:56;;;;;;;5.00;2.80;;;21.60;99.90;;;;;;4265646;27;20054;-71
2021/07/14 10:52:59;;;;;;;5.10;2.67;;;21.70;99.90;;;;;;4245854;27;20063;-71
2021/07/14 10:55:03;;;;;;;3.92;2.80;;;21.80;99.90;;;;;;4264038;27;20491;-72
2021/07/14 10:57:07;;;;;;;4.05;2.85;;;21.80;99.90;;;;;;4264554;27;20054;-71